Time;durP1;ratioP1;P1;durP2;ratioP2;P2;SDS_P1;SDS_P2;PMS_P1;PMS_P2;Temp;Humidity;BMP_temperature;BMP_pressure;BME280_temperature;BME280_humidity;BME280_pressure;Samples;Min_cycle;Max_cycle;Signal;HPM_P1;HPM_P2
2021/12/18 00:00:07;;;;;;;;;;;;;;;;;;5145674;27;19945;-95
2021/12/18 00:02:34;;;;;;;;;;;;;;;;;;5143119;27;19927;-96
2021/12/18 00:05:00;;;;;;;;;;;;;;;;;;5141318;27;19929;-96
2021/12/18 00:07:26;;;;;;;;;;;;;;;;;;5142502;27;19953;-95
2021/12/18 00:09:53;;;;;;;;;;;;;;;;;;5142751;27;19953;-96
2021/12/18 00:12:22;;;;;;;;;;;;;;;;;;5142204;27;19923;-96
2021/12/18 00:14:50;;;;;;;;;;;;;;;;;;5142239;27;19936;-96
2021/12/18 00:17:16;;;;;;;;;;;;;;;;;;5141229;27;19953;-96
2021/12/18 00:19:44;;;;;;;;;;;;;;;;;;5140736;27;19927;-96
2021/12/18 00:22:10;;;;;;;;;;;;;;;;;;5141664;28;19923;-95
2021/12/18 00:24:36;;;;;;;;;;;;;;;;;;5142862;28;19923;-96
2021/12/18 00:27:03;;;;;;;;;;;;;;;;;;5141104;28;19984;-96
2021/12/18 00:29:30;;;;;;;;;;;;;;;;;;5142508;28;19931;-96
2021/12/18 00:31:57;;;;;;;;;;;;;;;;;;5143097;28;19923;-96
2021/12/18 00:34:23;;;;;;;;;;;;;;;;;;5143473;28;20360;-95
2021/12/18 00:36:50;;;;;;;;;;;;;;;;;;5141832;28;19923;-96
2021/12/18 00:39:17;;;;;;;;;;;;;;;;;;5143962;28;19924;-95
2021/12/18 00:42:00;;;;;;;;;;;;;;;;;;5142946;28;19955;-96
2021/12/18 00:44:31;;;;;;;;;;;;;;;;;;5143267;28;19938;-96
2021/12/18 00:46:58;;;;;;;;;;;;;;;;;;5143404;28;19930;-96
2021/12/18 00:49:24;;;;;;;;;;;;;;;;;;5141506;28;19956;-95
2021/12/18 00:51:52;;;;;;;;;;;;;;;;;;5140901;28;19955;-93
2021/12/18 00:54:19;;;;;;;;;;;;;;;;;;5142280;28;19940;-96
2021/12/18 00:56:46;;;;;;;;;;;;;;;;;;5144283;28;19932;-94
2021/12/18 00:59:13;;;;;;;;;;;;;;;;;;5143801;28;19924;-94
2021/12/18 01:01:39;;;;;;;;;;;;;;;;;;5144046;28;19930;-95
2021/12/18 01:04:05;;;;;;;;;;;;;;;;;;5144225;28;19961;-96
2021/12/18 01:06:32;;;;;;;;;;;;;;;;;;5144400;28;20277;-96
2021/12/18 01:08:58;;;;;;;;;;;;;;;;;;5143093;28;19953;-95
2021/12/18 01:16:58;;;;;;;;;;;;;;;;;;5143726;28;19940;-95
2021/12/18 01:24:53;;;;;;;;;;;;;;;;;;5122711;28;19926;-96
2021/12/18 01:27:22;;;;;;;;;;;;;;;;;;5121667;28;19958;-96
2021/12/18 01:29:49;;;;;;;;;;;;;;;;;;5128579;28;19996;-96
2021/12/18 01:32:16;;;;;;;;;;;;;;;;;;5129629;28;19975;-96
2021/12/18 01:34:42;;;;;;;;;;;;;;;;;;5127213;28;19928;-96
2021/12/18 01:37:08;;;;;;;;;;;;;;;;;;5125557;28;19924;-96
2021/12/18 01:39:35;;;;;;;;;;;;;;;;;;5122085;28;19932;-96
2021/12/18 01:42:25;;;;;;;;;;;;;;;;;;5124523;28;19925;-96
2021/12/18 01:45:00;;;;;;;;;;;;;;;;;;5123712;28;19931;-96
2021/12/18 01:53:11;;;;;;;;;;;;;;;;;;5060709;28;19963;-93
2021/12/18 01:55:38;;;;;;;;;;;;;;;;;;5096465;28;19932;-96
2021/12/18 01:58:04;;;;;;;;;;;;;;;;;;5124469;28;19935;-94
2021/12/18 02:00:31;;;;;;;;;;;;;;;;;;5126671;28;19924;-96
2021/12/18 02:02:59;;;;;;;;;;;;;;;;;;5125102;28;19939;-96
2021/12/18 02:05:25;;;;;;;;;;;;;;;;;;5124204;28;19924;-96
2021/12/18 02:07:54;;;;;;;;;;;;;;;;;;5125647;28;19953;-96
2021/12/18 02:10:23;;;;;;;;;;;;;;;;;;5130192;28;19924;-95
2021/12/18 02:12:57;;;;;;;;;;;;;;;;;;5124669;28;19927;-96
2021/12/18 02:20:51;;;;;;;;;;;;;;;;;;5138842;27;19981;-96
2021/12/18 02:23:17;;;;;;;;;;;;;;;;;;5145393;27;19984;-96
2021/12/18 02:25:43;;;;;;;;;;;;;;;;;;5146561;27;19952;-95
2021/12/18 02:28:16;;;;;;;;;;;;;;;;;;5146086;27;19979;-96
2021/12/18 02:30:44;;;;;;;;;;;;;;;;;;5138217;27;19959;-96
2021/12/18 02:33:11;;;;;;;;;;;;;;;;;;5146964;27;21272;-96
2021/12/18 02:35:42;;;;;;;;;;;;;;;;;;5154033;27;19967;-96
2021/12/18 02:38:11;;;;;;;;;;;;;;;;;;5149212;27;19929;-96
2021/12/18 02:41:07;;;;;;;;;;;;;;;;;;5146931;27;19919;-96
2021/12/18 02:43:33;;;;;;;;;;;;;;;;;;5146073;27;19979;-96
2021/12/18 02:46:00;;;;;;;;;;;;;;;;;;5145977;27;19924;-96
2021/12/18 02:48:26;;;;;;;;;;;;;;;;;;5150917;27;19924;-96
2021/12/18 02:50:53;;;;;;;;;;;;;;;;;;5147347;27;19959;-96
2021/12/18 02:53:21;;;;;;;;;;;;;;;;;;5146409;27;19923;-96
2021/12/18 02:55:48;;;;;;;;;;;;;;;;;;5148061;27;19930;-96
2021/12/18 02:58:14;;;;;;;;;;;;;;;;;;5144110;27;19931;-96
2021/12/18 03:00:40;;;;;;;;;;;;;;;;;;5145538;27;19934;-96
2021/12/18 03:03:09;;;;;;;;;;;;;;;;;;5146442;27;19930;-96
2021/12/18 03:05:44;;;;;;;;;;;;;;;;;;5147662;27;19927;-96
2021/12/18 03:08:16;;;;;;;;;;;;;;;;;;5147956;27;19938;-96
2021/12/18 03:19:36;;;;;;;;;;;;;;;;;;5143468;27;19970;-96
2021/12/18 03:24:56;;;;;;;;;;;;;;;;;;5150218;27;19961;-96
2021/12/18 03:27:22;;;;;;;;;;;;;;;;;;5147398;27;20448;-96
2021/12/18 03:29:49;;;;;;;;;;;;;;;;;;5150627;27;19923;-96
2021/12/18 03:32:17;;;;;;;;;;;;;;;;;;5152771;27;19924;-96
2021/12/18 03:34:43;;;;;;;;;;;;;;;;;;5148556;27;20404;-96
2021/12/18 03:37:10;;;;;;;;;;;;;;;;;;5148432;27;19931;-96
2021/12/18 03:39:37;;;;;;;;;;;;;;;;;;5146202;27;19931;-96
2021/12/18 03:42:04;;;;;;;;;;;;;;;;;;5144303;27;19931;-95
2021/12/18 03:44:33;;;;;;;;;;;;;;;;;;5145208;27;19923;-96
2021/12/18 03:47:02;;;;;;;;;;;;;;;;;;5149756;27;19923;-96
2021/12/18 03:49:28;;;;;;;;;;;;;;;;;;5148309;27;19945;-96
2021/12/18 03:51:54;;;;;;;;;;;;;;;;;;5144407;27;19956;-96
2021/12/18 03:54:21;;;;;;;;;;;;;;;;;;5148838;27;19953;-92
2021/12/18 03:56:47;;;;;;;;;;;;;;;;;;5139603;27;19931;-94
2021/12/18 03:59:13;;;;;;;;;;;;;;;;;;5140439;27;19931;-93
2021/12/18 04:01:40;;;;;;;;;;;;;;;;;;5140386;27;19935;-95
2021/12/18 04:04:06;;;;;;;;;;;;;;;;;;5151630;27;19931;-96
2021/12/18 04:06:32;;;;;;;;;;;;;;;;;;5143984;27;19927;-95
2021/12/18 04:08:59;;;;;;;;;;;;;;;;;;5147595;27;19923;-96
2021/12/18 04:11:25;;;;;;;;;;;;;;;;;;5137034;27;19928;-95
2021/12/18 04:13:52;;;;;;;;;;;;;;;;;;5143413;27;20308;-96
2021/12/18 04:16:18;;;;;;;;;;;;;;;;;;5142254;27;19923;-96
2021/12/18 04:18:44;;;;;;;;;;;;;;;;;;5140417;27;19935;-94
2021/12/18 04:21:11;;;;;;;;;;;;;;;;;;5140539;27;19931;-96
2021/12/18 04:23:37;;;;;;;;;;;;;;;;;;5141304;28;20384;-96
2021/12/18 04:26:03;;;;;;;;;;;;;;;;;;5142896;27;20004;-96
2021/12/18 04:28:30;;;;;;;;;;;;;;;;;;5142759;28;19932;-96
2021/12/18 04:30:57;;;;;;;;;;;;;;;;;;5144612;28;19932;-96
2021/12/18 04:33:23;;;;;;;;;;;;;;;;;;5143338;28;19974;-96
2021/12/18 04:38:35;;;;;;;;;;;;;;;;;;5148289;28;19923;-96
2021/12/18 04:41:03;;;;;;;;;;;;;;;;;;5141987;28;19931;-95
2021/12/18 04:43:29;;;;;;;;;;;;;;;;;;5142765;28;19931;-96
2021/12/18 04:45:56;;;;;;;;;;;;;;;;;;5141991;28;20174;-93
2021/12/18 04:48:22;;;;;;;;;;;;;;;;;;5141681;28;19945;-94
2021/12/18 04:50:48;;;;;;;;;;;;;;;;;;5141633;28;19923;-96
2021/12/18 04:53:14;;;;;;;;;;;;;;;;;;5130843;28;19966;-94
2021/12/18 04:55:41;;;;;;;;;;;;;;;;;;5139461;28;19931;-95
2021/12/18 04:58:07;;;;;;;;;;;;;;;;;;5138535;28;19931;-96
2021/12/18 05:00:38;;;;;;;;;;;;;;;;;;5141335;28;20027;-96
2021/12/18 05:03:06;;;;;;;;;;;;;;;;;;5142127;27;19927;-96
2021/12/18 05:05:33;;;;;;;;;;;;;;;;;;5145594;27;19942;-96
2021/12/18 05:07:59;;;;;;;;;;;;;;;;;;5145789;27;19931;-95
2021/12/18 05:10:25;;;;;;;;;;;;;;;;;;5145182;27;19953;-96
2021/12/18 05:12:52;;;;;;;;;;;;;;;;;;5144944;27;19969;-95
2021/12/18 05:15:18;;;;;;;;;;;;;;;;;;5146973;27;19927;-96
2021/12/18 05:17:44;;;;;;;;;;;;;;;;;;5146472;27;19923;-96
2021/12/18 05:20:10;;;;;;;;;;;;;;;;;;5147150;27;20341;-96
2021/12/18 05:22:37;;;;;;;;;;;;;;;;;;5144971;27;19931;-96
2021/12/18 05:25:03;;;;;;;;;;;;;;;;;;5138835;27;19934;-95
2021/12/18 05:27:29;;;;;;;;;;;;;;;;;;5145442;27;19935;-96
2021/12/18 05:29:56;;;;;;;;;;;;;;;;;;5147727;27;19927;-95
2021/12/18 05:32:25;;;;;;;;;;;;;;;;;;5144450;27;19931;-96
2021/12/18 05:34:52;;;;;;;;;;;;;;;;;;5143670;27;19923;-96
2021/12/18 05:37:30;;;;;;;;;;;;;;;;;;5144734;27;19923;-96
2021/12/18 05:39:59;;;;;;;;;;;;;;;;;;5145019;27;20342;-96
2021/12/18 05:42:25;;;;;;;;;;;;;;;;;;5147228;27;20039;-95
2021/12/18 05:44:53;;;;;;;;;;;;;;;;;;5146593;27;19932;-96
2021/12/18 05:47:21;;;;;;;;;;;;;;;;;;5145565;27;19924;-96
2021/12/18 05:49:48;;;;;;;;;;;;;;;;;;5148864;27;20326;-96
2021/12/18 05:52:14;;;;;;;;;;;;;;;;;;5149031;27;19924;-96
2021/12/18 05:54:41;;;;;;;;;;;;;;;;;;5149855;27;19950;-96
2021/12/18 05:57:09;;;;;;;;;;;;;;;;;;5146691;27;19953;-96
2021/12/18 05:59:39;;;;;;;;;;;;;;;;;;5147765;27;19945;-96
2021/12/18 06:02:05;;;;;;;;;;;;;;;;;;5147258;27;19923;-95
2021/12/18 06:04:31;;;;;;;;;;;;;;;;;;5142809;27;19930;-95
2021/12/18 06:07:04;;;;;;;;;;;;;;;;;;5144845;27;19980;-95
2021/12/18 06:09:30;;;;;;;;;;;;;;;;;;5144366;27;19924;-95
2021/12/18 06:11:57;;;;;;;;;;;;;;;;;;5143591;27;19970;-96
2021/12/18 06:14:24;;;;;;;;;;;;;;;;;;5144703;27;19997;-96
2021/12/18 06:16:50;;;;;;;;;;;;;;;;;;5145219;27;19930;-96
2021/12/18 06:19:16;;;;;;;;;;;;;;;;;;5144587;27;19935;-96
2021/12/18 06:21:42;;;;;;;;;;;;;;;;;;5144026;27;19931;-96
2021/12/18 06:24:09;;;;;;;;;;;;;;;;;;5143217;27;19991;-96
2021/12/18 06:26:35;;;;;;;;;;;;;;;;;;5146939;27;19952;-95
2021/12/18 06:29:01;;;;;;;;;;;;;;;;;;5144687;27;19952;-96
2021/12/18 06:31:27;;;;;;;;;;;;;;;;;;5144939;27;19927;-96
2021/12/18 06:33:57;;;;;;;;;;;;;;;;;;5146028;27;19930;-96
2021/12/18 06:36:23;;;;;;;;;;;;;;;;;;5145724;27;19939;-96
2021/12/18 06:38:49;;;;;;;;;;;;;;;;;;5144742;27;19938;-95
2021/12/18 06:41:16;;;;;;;;;;;;;;;;;;5143148;27;20615;-96
2021/12/18 06:43:42;;;;;;;;;;;;;;;;;;5141330;27;19928;-96
2021/12/18 06:46:08;;;;;;;;;;;;;;;;;;5140218;27;19939;-96
2021/12/18 06:48:35;;;;;;;;;;;;;;;;;;5143083;27;19972;-96
2021/12/18 06:51:01;;;;;;;;;;;;;;;;;;5142377;27;19931;-96
2021/12/18 06:53:27;;;;;;;;;;;;;;;;;;5141763;27;19931;-94
2021/12/18 06:55:54;;;;;;;;;;;;;;;;;;5141772;27;19935;-96
2021/12/18 06:58:20;;;;;;;;;;;;;;;;;;5145736;27;19924;-96
2021/12/18 07:00:46;;;;;;;;;;;;;;;;;;5143068;27;20422;-96
2021/12/18 07:03:13;;;;;;;;;;;;;;;;;;5142679;27;19968;-96
2021/12/18 07:05:39;;;;;;;;;;;;;;;;;;5142245;27;19927;-96
2021/12/18 07:08:06;;;;;;;;;;;;;;;;;;5144608;27;19949;-96
2021/12/18 07:10:32;;;;;;;;;;;;;;;;;;5143539;27;19931;-95
2021/12/18 07:12:58;;;;;;;;;;;;;;;;;;5141599;27;19931;-93
2021/12/18 07:15:25;;;;;;;;;;;;;;;;;;5140713;27;19935;-96
2021/12/18 07:17:51;;;;;;;;;;;;;;;;;;5141841;27;19931;-96
2021/12/18 07:20:17;;;;;;;;;;;;;;;;;;5142808;27;19943;-96
2021/12/18 07:22:43;;;;;;;;;;;;;;;;;;5142760;27;19927;-95
2021/12/18 07:25:10;;;;;;;;;;;;;;;;;;5141030;27;19969;-96
2021/12/18 07:27:36;;;;;;;;;;;;;;;;;;5143205;27;19952;-95
2021/12/18 07:30:02;;;;;;;;;;;;;;;;;;5142050;27;19945;-96
2021/12/18 07:32:29;;;;;;;;;;;;;;;;;;5139918;27;20713;-96
2021/12/18 07:34:56;;;;;;;;;;;;;;;;;;5130103;27;19933;-95
2021/12/18 07:37:24;;;;;;;;;;;;;;;;;;5140194;27;20015;-96
2021/12/18 07:39:50;;;;;;;;;;;;;;;;;;5140961;27;19939;-96
2021/12/18 07:42:16;;;;;;;;;;;;;;;;;;5140990;27;19927;-95
2021/12/18 07:44:42;;;;;;;;;;;;;;;;;;5138192;27;19953;-96
2021/12/18 07:47:10;;;;;;;;;;;;;;;;;;5145131;27;19980;-96
2021/12/18 07:49:36;;;;;;;;;;;;;;;;;;5142479;27;20598;-95
2021/12/18 07:52:04;;;;;;;;;;;;;;;;;;5141662;27;19939;-93
2021/12/18 07:57:10;;;;;;;;;;;;;;;;;;5142788;27;19931;-93
2021/12/18 07:59:37;;;;;;;;;;;;;;;;;;5142605;27;20305;-92
2021/12/18 08:02:04;;;;;;;;;;;;;;;;;;5139370;27;19931;-93
2021/12/18 08:04:31;;;;;;;;;;;;;;;;;;5138526;27;19923;-95
2021/12/18 08:06:57;;;;;;;;;;;;;;;;;;5140152;27;19923;-95
2021/12/18 08:09:24;;;;;;;;;;;;;;;;;;5142092;27;19923;-95
2021/12/18 08:11:50;;;;;;;;;;;;;;;;;;5139811;27;21667;-94
2021/12/18 08:14:16;;;;;;;;;;;;;;;;;;5140032;27;20296;-95
2021/12/18 08:16:43;;;;;;;;;;;;;;;;;;5138337;27;19995;-94
2021/12/18 08:19:09;;;;;;;;;;;;;;;;;;5140327;27;19953;-95
2021/12/18 08:21:35;;;;;;;;;;;;;;;;;;5141493;27;19938;-94
2021/12/18 08:24:02;;;;;;;;;;;;;;;;;;5140470;27;20024;-92
2021/12/18 08:26:28;;;;;;;;;;;;;;;;;;5139822;28;19923;-91
2021/12/18 08:28:56;;;;;;;;;;;;;;;;;;5140899;28;19980;-96
2021/12/18 08:31:23;;;;;;;;;;;;;;;;;;5140589;28;20276;-96
2021/12/18 08:33:49;;;;;;;;;;;;;;;;;;5139919;28;19935;-96
2021/12/18 08:36:15;;;;;;;;;;;;;;;;;;5141856;27;19923;-95
2021/12/18 08:38:42;;;;;;;;;;;;;;;;;;5144360;27;19932;-95
2021/12/18 08:41:08;;;;;;;;;;;;;;;;;;5143789;27;19949;-96
2021/12/18 08:43:34;;;;;;;;;;;;;;;;;;5144057;27;19983;-95
2021/12/18 08:46:01;;;;;;;;;;;;;;;;;;5142688;27;19953;-94
2021/12/18 08:48:27;;;;;;;;;;;;;;;;;;5142190;27;19977;-93
2021/12/18 08:50:54;;;;;;;;;;;;;;;;;;5141951;27;19924;-91
2021/12/18 08:53:21;;;;;;;;;;;;;;;;;;5135272;27;20271;-93
2021/12/18 08:55:47;;;;;;;;;;;;;;;;;;5140122;27;20697;-95
2021/12/18 08:58:13;;;;;;;;;;;;;;;;;;5140131;27;20436;-92
2021/12/18 09:00:40;;;;;;;;;;;;;;;;;;5136222;27;20558;-94
2021/12/18 09:03:06;;;;;;;;;;;;;;;;;;5136760;27;20496;-96
2021/12/18 09:05:34;;;;;;;;;;;;;;;;;;5135477;27;21166;-94
2021/12/18 09:08:00;;;;;;;;;;;;;;;;;;5136155;27;19931;-94
2021/12/18 09:10:27;;;;;;;;;;;;;;;;;;5138360;27;19931;-94
2021/12/18 09:12:53;;;;;;;;;;;;;;;;;;5141741;27;19999;-95
2021/12/18 09:15:19;;;;;;;;;;;;;;;;;;5142454;27;19949;-93
2021/12/18 09:17:45;;;;;;;;;;;;;;;;;;5142889;27;19923;-96
2021/12/18 09:20:12;;;;;;;;;;;;;;;;;;5143682;27;19934;-94
2021/12/18 09:22:38;;;;;;;;;;;;;;;;;;5141842;27;19931;-96
2021/12/18 09:25:05;;;;;;;;;;;;;;;;;;5141128;27;20039;-92
2021/12/18 09:27:31;;;;;;;;;;;;;;;;;;5142776;27;19987;-92
2021/12/18 09:29:58;;;;;;;;;;;;;;;;;;5143524;27;19953;-95
2021/12/18 09:32:24;;;;;;;;;;;;;;;;;;5141787;27;19931;-91
2021/12/18 09:34:50;;;;;;;;;;;;;;;;;;5137514;27;19928;-92
2021/12/18 09:37:16;;;;;;;;;;;;;;;;;;5141487;27;19931;-96
2021/12/18 09:39:43;;;;;;;;;;;;;;;;;;5142120;27;19930;-94
2021/12/18 09:42:09;;;;;;;;;;;;;;;;;;5140494;27;19983;-96
2021/12/18 09:44:35;;;;;;;;;;;;;;;;;;5144076;27;19927;-94
2021/12/18 09:47:01;;;;;;;;;;;;;;;;;;5143894;27;19931;-92
2021/12/18 09:49:28;;;;;;;;;;;;;;;;;;5143762;27;19936;-95
2021/12/18 09:51:54;;;;;;;;;;;;;;;;;;5144026;27;19953;-92
2021/12/18 09:54:21;;;;;;;;;;;;;;;;;;5143033;27;19923;-93
2021/12/18 09:56:49;;;;;;;;;;;;;;;;;;5142934;27;19938;-96
2021/12/18 09:59:15;;;;;;;;;;;;;;;;;;5143728;27;21080;-94
2021/12/18 10:01:41;;;;;;;;;;;;;;;;;;5142790;27;19931;-96
2021/12/18 10:04:08;;;;;;;;;;;;;;;;;;5142435;27;20012;-96
2021/12/18 10:06:36;;;;;;;;;;;;;;;;;;5140801;27;19923;-95
2021/12/18 10:09:02;;;;;;;;;;;;;;;;;;5141475;27;20729;-95
2021/12/18 10:11:28;;;;;;;;;;;;;;;;;;5142574;27;19935;-94
2021/12/18 10:13:54;;;;;;;;;;;;;;;;;;5141778;27;19923;-94
2021/12/18 10:16:21;;;;;;;;;;;;;;;;;;5141827;27;19923;-95
2021/12/18 10:18:47;;;;;;;;;;;;;;;;;;5142685;27;19923;-96
2021/12/18 10:21:14;;;;;;;;;;;;;;;;;;5143860;27;19931;-94
2021/12/18 10:23:42;;;;;;;;;;;;;;;;;;5144524;27;19931;-94
2021/12/18 10:26:09;;;;;;;;;;;;;;;;;;5143802;27;19934;-94
2021/12/18 10:28:36;;;;;;;;;;;;;;;;;;5142112;27;19977;-94
2021/12/18 10:31:02;;;;;;;;;;;;;;;;;;5140897;27;19923;-96
2021/12/18 10:33:28;;;;;;;;;;;;;;;;;;5142620;27;19927;-94
2021/12/18 10:35:55;;;;;;;;;;;;;;;;;;5141829;27;19935;-93
2021/12/18 10:38:21;;;;;;;;;;;;;;;;;;5140789;27;20015;-94
2021/12/18 10:40:47;;;;;;;;;;;;;;;;;;5143475;27;19923;-91
2021/12/18 10:43:13;;;;;;;;;;;;;;;;;;5142135;27;19939;-95
2021/12/18 10:45:40;;;;;;;;;;;;;;;;;;5141687;27;19927;-93
2021/12/18 10:48:06;;;;;;;;;;;;;;;;;;5140994;27;19923;-96
2021/12/18 10:50:33;;;;;;;;;;;;;;;;;;5141891;27;19924;-92
2021/12/18 10:52:59;;;;;;;;;;;;;;;;;;5143810;27;19967;-95
2021/12/18 10:55:25;;;;;;;;;;;;;;;;;;5142206;27;19928;-94
2021/12/18 10:57:52;;;;;;;;;;;;;;;;;;5138778;27;19931;-95
2021/12/18 11:00:21;;;;;;;;;;;;;;;;;;5134334;27;20002;-95
2021/12/18 11:02:48;;;;;;;;;;;;;;;;;;5141297;27;19923;-93
2021/12/18 11:05:14;;;;;;;;;;;;;;;;;;5140737;27;19946;-93
2021/12/18 11:07:43;;;;;;;;;;;;;;;;;;5141838;27;19931;-94
2021/12/18 11:10:14;;;;;;;;;;;;;;;;;;5140732;27;19924;-94
2021/12/18 11:15:26;;;;;;;;;;;;;;;;;;5143021;27;19926;-93
2021/12/18 11:17:55;;;;;;;;;;;;;;;;;;5141263;27;19963;-95
2021/12/18 11:20:21;;;;;;;;;;;;;;;;;;5141587;27;19923;-94
2021/12/18 11:22:49;;;;;;;;;;;;;;;;;;5142992;27;19928;-94
2021/12/18 11:25:18;;;;;;;;;;;;;;;;;;5157421;22;19947;-94
2021/12/18 11:27:44;;;;;;;;;;;;;;;;;;5143102;27;19931;-96
2021/12/18 11:30:12;;;;;;;;;;;;;;;;;;5142645;27;19931;-94
2021/12/18 11:32:40;;;;;;;;;;;;;;;;;;5144393;27;19936;-96
2021/12/18 11:35:07;;;;;;;;;;;;;;;;;;5148627;27;19932;-96
2021/12/18 11:37:37;;;;;;;;;;;;;;;;;;5161998;22;19942;-96
2021/12/18 11:40:04;;;;;;;;;;;;;;;;;;5130961;28;19935;-96
2021/12/18 11:42:31;;;;;;;;;;;;;;;;;;5129944;28;19911;-96
2021/12/18 11:44:58;;;;;;;;;;;;;;;;;;5127895;28;19924;-96
2021/12/18 11:47:25;;;;;;;;;;;;;;;;;;5128337;28;19923;-96
2021/12/18 11:49:51;;;;;;;;;;;;;;;;;;5122623;28;19927;-94
2021/12/18 11:52:18;;;;;;;;;;;;;;;;;;5121089;28;19924;-95
2021/12/18 11:54:44;;;;;;;;;;;;;;;;;;5122679;28;19927;-94
2021/12/18 11:57:11;;;;;;;;;;;;;;;;;;5120672;28;19928;-95
2021/12/18 11:59:39;;;;;;;;;;;;;;;;;;5127315;28;19920;-96
2021/12/18 12:02:05;;;;;;;;;;;;;;;;;;5123655;28;19928;-93
2021/12/18 12:04:31;;;;;;;;;;;;;;;;;;5118881;28;19932;-91
2021/12/18 12:06:58;;;;;;;;;;;;;;;;;;5118216;28;20463;-94
2021/12/18 12:09:25;;;;;;;;;;;;;;;;;;5119337;28;20918;-93
2021/12/18 12:11:51;;;;;;;;;;;;;;;;;;5118881;28;19934;-93
2021/12/18 12:14:19;;;;;;;;;;;;;;;;;;5119731;28;19927;-92
2021/12/18 12:16:45;;;;;;;;;;;;;;;;;;5120285;28;19959;-92
2021/12/18 12:19:11;;;;;;;;;;;;;;;;;;5119461;28;19924;-92
2021/12/18 12:21:37;;;;;;;;;;;;;;;;;;5118612;28;19927;-91
2021/12/18 12:24:04;;;;;;;;;;;;;;;;;;5113927;28;19928;-93
2021/12/18 12:26:30;;;;;;;;;;;;;;;;;;5112326;28;19923;-91
2021/12/18 12:28:56;;;;;;;;;;;;;;;;;;5114652;28;19948;-93
2021/12/18 12:31:22;;;;;;;;;;;;;;;;;;5114925;28;19927;-93
2021/12/18 12:33:50;;;;;;;;;;;;;;;;;;5115550;28;20433;-91
2021/12/18 12:36:17;;;;;;;;;;;;;;;;;;5114239;28;19932;-92
2021/12/18 12:38:43;;;;;;;;;;;;;;;;;;5112748;28;19932;-94
2021/12/18 12:41:09;;;;;;;;;;;;;;;;;;5112094;28;19924;-96
2021/12/18 12:43:35;;;;;;;;;;;;;;;;;;5112619;28;19924;-93
2021/12/18 12:46:06;;;;;;;;;;;;;;;;;;5114259;28;20324;-94
2021/12/18 12:48:32;;;;;;;;;;;;;;;;;;5114048;28;19943;-90
2021/12/18 12:50:58;;;;;;;;;;;;;;;;;;5114828;28;19935;-95
2021/12/18 12:53:24;;;;;;;;;;;;;;;;;;5116959;28;19932;-91
2021/12/18 12:55:50;;;;;;;;;;;;;;;;;;5117380;28;19932;-92
2021/12/18 12:58:17;;;;;;;;;;;;;;;;;;5118914;28;19976;-92
2021/12/18 13:00:43;;;;;;;;;;;;;;;;;;5118507;28;19968;-94
2021/12/18 13:03:11;;;;;;;;;;;;;;;;;;5116455;28;19932;-92
2021/12/18 13:05:37;;;;;;;;;;;;;;;;;;5112688;28;19932;-93
2021/12/18 13:08:03;;;;;;;;;;;;;;;;;;5119296;28;19945;-96
2021/12/18 13:10:31;;;;;;;;;;;;;;;;;;5121563;28;19946;-93
2021/12/18 13:12:57;;;;;;;;;;;;;;;;;;5120506;28;20011;-95
2021/12/18 13:15:23;;;;;;;;;;;;;;;;;;5123963;28;19912;-96
2021/12/18 13:17:50;;;;;;;;;;;;;;;;;;5122272;28;19932;-91
2021/12/18 13:20:16;;;;;;;;;;;;;;;;;;5118037;28;19957;-93
2021/12/18 13:22:42;;;;;;;;;;;;;;;;;;5119446;28;19924;-92
2021/12/18 13:25:08;;;;;;;;;;;;;;;;;;5124975;28;19945;-90
2021/12/18 13:27:35;;;;;;;;;;;;;;;;;;5119599;28;19928;-93
2021/12/18 13:30:01;;;;;;;;;;;;;;;;;;5123477;28;19940;-94
2021/12/18 13:32:29;;;;;;;;;;;;;;;;;;5121996;28;19954;-94
2021/12/18 13:34:55;;;;;;;;;;;;;;;;;;5122233;28;19939;-92
2021/12/18 13:37:21;;;;;;;;;;;;;;;;;;5118874;28;19932;-95
2021/12/18 13:39:49;;;;;;;;;;;;;;;;;;5120240;28;20011;-96
2021/12/18 13:42:17;;;;;;;;;;;;;;;;;;5120918;28;19939;-95
2021/12/18 13:44:43;;;;;;;;;;;;;;;;;;5117452;28;19928;-94
2021/12/18 13:47:09;;;;;;;;;;;;;;;;;;5117247;28;19924;-94
2021/12/18 13:49:35;;;;;;;;;;;;;;;;;;5116309;28;19932;-90
2021/12/18 13:52:05;;;;;;;;;;;;;;;;;;5117895;28;19931;-94
2021/12/18 13:54:31;;;;;;;;;;;;;;;;;;5119181;28;19924;-94
2021/12/18 13:56:57;;;;;;;;;;;;;;;;;;5118134;28;19931;-90
2021/12/18 13:59:24;;;;;;;;;;;;;;;;;;5120327;28;19932;-94
2021/12/18 14:01:51;;;;;;;;;;;;;;;;;;5121862;28;19939;-91
2021/12/18 14:04:17;;;;;;;;;;;;;;;;;;5122472;28;19974;-91
2021/12/18 14:06:43;;;;;;;;;;;;;;;;;;5121961;28;19931;-92
2021/12/18 14:09:12;;;;;;;;;;;;;;;;;;5117917;28;19965;-91
2021/12/18 14:11:38;;;;;;;;;;;;;;;;;;5117149;27;20003;-92
2021/12/18 14:14:05;;;;;;;;;;;;;;;;;;5120642;28;19953;-91
2021/12/18 14:16:31;;;;;;;;;;;;;;;;;;5115684;28;19961;-92
2021/12/18 14:18:57;;;;;;;;;;;;;;;;;;5120915;28;20008;-93
2021/12/18 14:21:33;;;;;;;;;;;;;;;;;;5124698;28;19924;-96
2021/12/18 14:26:44;;;;;;;;;;;;;;;;;;5128278;28;19908;-96
2021/12/18 14:29:10;;;;;;;;;;;;;;;;;;5152437;22;19930;-96
2021/12/18 14:31:37;;;;;;;;;;;;;;;;;;5156084;27;19907;-95
2021/12/18 14:34:04;;;;;;;;;;;;;;;;;;5163316;27;19907;-94
2021/12/18 14:39:05;;;;;;;;;;;;;;;;;;5323491;22;19991;-95
2021/12/18 14:41:35;;;;;;;;;;;;;;;;;;5121059;28;19928;-96
2021/12/18 14:52:07;;;;;;;;;;;;;;;;;;5131635;27;19983;-96
2021/12/18 14:54:34;;;;;;;;;;;;;;;;;;5120647;28;19931;-93
2021/12/18 14:57:15;;;;;;;;;;;;;;;;;;5122047;28;19932;-96
2021/12/18 14:59:41;;;;;;;;;;;;;;;;;;5128652;28;19931;-94
2021/12/18 15:02:08;;;;;;;;;;;;;;;;;;5119486;28;19932;-96
2021/12/18 15:04:34;;;;;;;;;;;;;;;;;;5120409;28;19954;-95
2021/12/18 15:07:00;;;;;;;;;;;;;;;;;;5120002;28;19931;-95
2021/12/18 15:09:28;;;;;;;;;;;;;;;;;;5121461;28;19924;-96
2021/12/18 15:11:54;;;;;;;;;;;;;;;;;;5120256;28;19928;-95
2021/12/18 15:14:20;;;;;;;;;;;;;;;;;;5119667;28;19932;-96
2021/12/18 15:16:47;;;;;;;;;;;;;;;;;;5121359;28;19932;-93
2021/12/18 15:19:13;;;;;;;;;;;;;;;;;;5117665;28;19928;-95
2021/12/18 15:21:39;;;;;;;;;;;;;;;;;;5120470;28;19924;-96
2021/12/18 15:24:06;;;;;;;;;;;;;;;;;;5120522;28;19949;-96
2021/12/18 15:26:32;;;;;;;;;;;;;;;;;;5119688;28;19928;-94
2021/12/18 15:28:58;;;;;;;;;;;;;;;;;;5116827;28;19932;-92
2021/12/18 15:31:25;;;;;;;;;;;;;;;;;;5118124;28;19932;-95
2021/12/18 15:33:51;;;;;;;;;;;;;;;;;;5120163;28;19992;-93
2021/12/18 15:36:18;;;;;;;;;;;;;;;;;;5119894;28;19932;-92
2021/12/18 15:38:44;;;;;;;;;;;;;;;;;;5120459;28;20032;-91
2021/12/18 15:41:10;;;;;;;;;;;;;;;;;;5119980;28;19936;-93
2021/12/18 15:43:36;;;;;;;;;;;;;;;;;;5119458;28;19924;-93
2021/12/18 15:46:03;;;;;;;;;;;;;;;;;;5120518;28;19954;-95
2021/12/18 15:48:29;;;;;;;;;;;;;;;;;;5120523;28;20383;-95
2021/12/18 15:50:55;;;;;;;;;;;;;;;;;;5120332;28;19923;-96
2021/12/18 15:53:22;;;;;;;;;;;;;;;;;;5118458;28;19935;-95
2021/12/18 15:55:48;;;;;;;;;;;;;;;;;;5118466;28;19932;-95
2021/12/18 15:58:14;;;;;;;;;;;;;;;;;;5118783;28;19932;-95
2021/12/18 16:00:40;;;;;;;;;;;;;;;;;;5106443;28;19932;-94
2021/12/18 16:03:07;;;;;;;;;;;;;;;;;;5115454;28;19923;-95
2021/12/18 16:05:35;;;;;;;;;;;;;;;;;;5112320;28;19945;-96
2021/12/18 16:08:01;;;;;;;;;;;;;;;;;;5115050;28;19928;-95
2021/12/18 16:10:28;;;;;;;;;;;;;;;;;;5116015;28;19924;-95
2021/12/18 16:12:54;;;;;;;;;;;;;;;;;;5116485;28;19924;-95
2021/12/18 16:15:20;;;;;;;;;;;;;;;;;;5118713;28;19931;-96
2021/12/18 16:17:47;;;;;;;;;;;;;;;;;;5118770;28;20010;-95
2021/12/18 16:20:13;;;;;;;;;;;;;;;;;;5119333;28;19960;-95
2021/12/18 16:22:39;;;;;;;;;;;;;;;;;;5118084;28;19924;-95
2021/12/18 16:25:06;;;;;;;;;;;;;;;;;;5117290;28;19923;-96
2021/12/18 16:27:32;;;;;;;;;;;;;;;;;;5119186;28;19971;-96
2021/12/18 16:29:59;;;;;;;;;;;;;;;;;;5120118;28;19985;-96
2021/12/18 16:32:25;;;;;;;;;;;;;;;;;;5119044;28;19946;-94
2021/12/18 16:34:51;;;;;;;;;;;;;;;;;;5119821;28;19932;-96
2021/12/18 16:37:19;;;;;;;;;;;;;;;;;;5119221;28;19947;-96
2021/12/18 16:39:48;;;;;;;;;;;;;;;;;;5118094;28;19987;-95
2021/12/18 16:42:15;;;;;;;;;;;;;;;;;;5119852;28;20000;-96
2021/12/18 16:44:41;;;;;;;;;;;;;;;;;;5120225;28;20358;-96
2021/12/18 16:47:08;;;;;;;;;;;;;;;;;;5119543;28;19940;-96
2021/12/18 16:49:35;;;;;;;;;;;;;;;;;;5118692;28;19931;-96
2021/12/18 16:52:02;;;;;;;;;;;;;;;;;;5119455;28;19932;-96
2021/12/18 16:54:29;;;;;;;;;;;;;;;;;;5111970;28;19955;-96
2021/12/18 16:56:55;;;;;;;;;;;;;;;;;;5120191;28;19951;-96
2021/12/18 16:59:21;;;;;;;;;;;;;;;;;;5122283;28;19928;-96
2021/12/18 17:01:48;;;;;;;;;;;;;;;;;;5123287;28;19924;-96
2021/12/18 17:04:18;;;;;;;;;;;;;;;;;;5125350;28;19924;-96
2021/12/18 17:06:44;;;;;;;;;;;;;;;;;;5127605;28;19931;-96
2021/12/18 17:09:11;;;;;;;;;;;;;;;;;;5123557;28;19932;-96
2021/12/18 17:11:37;;;;;;;;;;;;;;;;;;5123029;28;19932;-96
2021/12/18 17:14:04;;;;;;;;;;;;;;;;;;5121980;28;20547;-96
2021/12/18 17:16:31;;;;;;;;;;;;;;;;;;5121625;28;20597;-96
2021/12/18 17:18:57;;;;;;;;;;;;;;;;;;5122085;28;19931;-96
2021/12/18 17:21:23;;;;;;;;;;;;;;;;;;5123829;28;19935;-96
2021/12/18 17:23:50;;;;;;;;;;;;;;;;;;5125053;28;19953;-96
2021/12/18 17:26:16;;;;;;;;;;;;;;;;;;5128530;28;19927;-96
2021/12/18 17:28:42;;;;;;;;;;;;;;;;;;5117700;28;20379;-94
2021/12/18 17:31:09;;;;;;;;;;;;;;;;;;5124138;28;19992;-96
2021/12/18 17:33:35;;;;;;;;;;;;;;;;;;5122218;28;19924;-96
2021/12/18 17:36:01;;;;;;;;;;;;;;;;;;5121334;28;19953;-96
2021/12/18 17:38:28;;;;;;;;;;;;;;;;;;5123155;28;19935;-96